sensor_id;sensor_type;location;lat;lon;timestamp;temperature;humidity
5222;DHT22;2630;52.036;8.514;2023-02-28T00:00:27;-1.20;99.90
5222;DHT22;2630;52.036;8.514;2023-02-28T00:02:53;-1.30;99.90
5222;DHT22;2630;52.036;8.514;2023-02-28T00:05:20;-1.20;99.90
5222;DHT22;2630;52.036;8.514;2023-02-28T00:07:46;-1.50;99.90
5222;DHT22;2630;52.036;8.514;2023-02-28T00:10:15;-1.20;99.90
5222;DHT22;2630;52.036;8.514;2023-02-28T00:15:10;-1.20;99.90
5222;DHT22;2630;52.036;8.514;2023-02-28T00:17:37;-1.10;99.90
5222;DHT22;2630;52.036;8.514;2023-02-28T00:20:03;-1.10;99.90
5222;DHT22;2630;52.036;8.514;2023-02-28T00:22:36;-1.10;99.90
5222;DHT22;2630;52.036;8.514;2023-02-28T00:25:03;-1.10;99.90
5222;DHT22;2630;52.036;8.514;2023-02-28T00:27:29;-1.10;99.90
5222;DHT22;2630;52.036;8.514;2023-02-28T00:29:54;-1.00;99.90
5222;DHT22;2630;52.036;8.514;2023-02-28T00:32:20;-1.00;99.90
5222;DHT22;2630;52.036;8.514;2023-02-28T00:34:46;-1.00;99.90
5222;DHT22;2630;52.036;8.514;2023-02-28T00:37:11;-1.00;99.90
5222;DHT22;2630;52.036;8.514;2023-02-28T00:39:38;-1.00;99.90
5222;DHT22;2630;52.036;8.514;2023-02-28T00:42:05;-1.00;99.90
5222;DHT22;2630;52.036;8.514;2023-02-28T00:44:31;-1.00;99.90
5222;DHT22;2630;52.036;8.514;2023-02-28T00:46:57;-1.00;99.90
5222;DHT22;2630;52.036;8.514;2023-02-28T00:49:23;-1.10;99.90
5222;DHT22;2630;52.036;8.514;2023-02-28T00:51:49;-1.00;99.90
5222;DHT22;2630;52.036;8.514;2023-02-28T00:54:15;-1.10;99.90
5222;DHT22;2630;52.036;8.514;2023-02-28T00:56:41;-1.10;99.90
5222;DHT22;2630;52.036;8.514;2023-02-28T00:59:08;-1.10;99.90
5222;DHT22;2630;52.036;8.514;2023-02-28T01:01:33;-1.20;99.90
5222;DHT22;2630;52.036;8.514;2023-02-28T01:03:59;-1.20;99.90
5222;DHT22;2630;52.036;8.514;2023-02-28T01:06:25;-1.20;99.90
5222;DHT22;2630;52.036;8.514;2023-02-28T01:08:50;-1.30;99.90
5222;DHT22;2630;52.036;8.514;2023-02-28T01:11:17;-1.30;99.90
5222;DHT22;2630;52.036;8.514;2023-02-28T01:16:10;-1.30;99.90
5222;DHT22;2630;52.036;8.514;2023-02-28T01:18:36;-1.40;99.90
5222;DHT22;2630;52.036;8.514;2023-02-28T01:21:11;-1.40;99.90
5222;DHT22;2630;52.036;8.514;2023-02-28T01:26:06;-1.40;99.90
5222;DHT22;2630;52.036;8.514;2023-02-28T01:33:23;-1.60;99.90
5222;DHT22;2630;52.036;8.514;2023-02-28T01:35:49;-1.50;99.90
5222;DHT22;2630;52.036;8.514;2023-02-28T01:38:15;-1.60;99.90
5222;DHT22;2630;52.036;8.514;2023-02-28T01:40:41;-1.60;99.90
5222;DHT22;2630;52.036;8.514;2023-02-28T01:43:29;-1.60;99.90
5222;DHT22;2630;52.036;8.514;2023-02-28T01:45:56;-1.70;99.90
5222;DHT22;2630;52.036;8.514;2023-02-28T01:48:27;-1.70;99.90
5222;DHT22;2630;52.036;8.514;2023-02-28T01:50:55;-1.70;99.90
5222;DHT22;2630;52.036;8.514;2023-02-28T01:55:52;-1.80;99.90
5222;DHT22;2630;52.036;8.514;2023-02-28T01:58:19;-1.80;99.90
5222;DHT22;2630;52.036;8.514;2023-02-28T02:03:14;-1.90;99.90
5222;DHT22;2630;52.036;8.514;2023-02-28T02:05:44;-1.90;99.90
5222;DHT22;2630;52.036;8.514;2023-02-28T02:08:23;-1.80;99.90
5222;DHT22;2630;52.036;8.514;2023-02-28T02:16:39;-1.80;99.90
5222;DHT22;2630;52.036;8.514;2023-02-28T02:22:35;-1.80;99.90
5222;DHT22;2630;52.036;8.514;2023-02-28T02:25:28;-1.80;99.90
5222;DHT22;2630;52.036;8.514;2023-02-28T02:28:17;-1.80;99.90
5222;DHT22;2630;52.036;8.514;2023-02-28T02:33:41;-1.90;99.90
5222;DHT22;2630;52.036;8.514;2023-02-28T02:36:26;-1.90;99.90
5222;DHT22;2630;52.036;8.514;2023-02-28T02:44:15;-1.90;99.90
5222;DHT22;2630;52.036;8.514;2023-02-28T02:46:47;-1.90;99.90
5222;DHT22;2630;52.036;8.514;2023-02-28T02:49:21;-2.00;99.90
5222;DHT22;2630;52.036;8.514;2023-02-28T02:51:49;-2.00;99.90
5222;DHT22;2630;52.036;8.514;2023-02-28T02:54:30;-2.10;99.90
5222;DHT22;2630;52.036;8.514;2023-02-28T02:57:01;-2.10;99.90
5222;DHT22;2630;52.036;8.514;2023-02-28T02:59:29;-2.10;99.90
5222;DHT22;2630;52.036;8.514;2023-02-28T03:01:59;-2.10;99.90
5222;DHT22;2630;52.036;8.514;2023-02-28T03:04:30;-2.10;99.90
5222;DHT22;2630;52.036;8.514;2023-02-28T03:06:57;-2.20;99.90
5222;DHT22;2630;52.036;8.514;2023-02-28T03:09:24;-2.10;99.90
5222;DHT22;2630;52.036;8.514;2023-02-28T03:11:52;-2.20;99.90
5222;DHT22;2630;52.036;8.514;2023-02-28T03:24:47;-2.30;99.90
5222;DHT22;2630;52.036;8.514;2023-02-28T03:29:46;-2.40;99.90
5222;DHT22;2630;52.036;8.514;2023-02-28T03:32:24;-2.40;99.90
5222;DHT22;2630;52.036;8.514;2023-02-28T03:35:01;-2.40;99.90
5222;DHT22;2630;52.036;8.514;2023-02-28T03:37:31;-2.50;99.90
5222;DHT22;2630;52.036;8.514;2023-02-28T03:40:21;-2.60;99.90
5222;DHT22;2630;52.036;8.514;2023-02-28T03:42:52;-2.50;99.90
5222;DHT22;2630;52.036;8.514;2023-02-28T03:45:25;-2.60;99.90
5222;DHT22;2630;52.036;8.514;2023-02-28T03:47:54;-2.60;99.90
5222;DHT22;2630;52.036;8.514;2023-02-28T03:50:29;-2.60;99.90
5222;DHT22;2630;52.036;8.514;2023-02-28T03:55:29;-2.70;99.90
5222;DHT22;2630;52.036;8.514;2023-02-28T03:57:57;-2.70;99.90
5222;DHT22;2630;52.036;8.514;2023-02-28T04:00:28;-2.70;99.90
5222;DHT22;2630;52.036;8.514;2023-02-28T04:02:55;-2.70;99.90
5222;DHT22;2630;52.036;8.514;2023-02-28T04:05:21;-2.70;99.90
5222;DHT22;2630;52.036;8.514;2023-02-28T04:07:47;-2.80;99.90
5222;DHT22;2630;52.036;8.514;2023-02-28T04:10:15;-2.80;99.90
5222;DHT22;2630;52.036;8.514;2023-02-28T04:12:41;-2.80;99.90
5222;DHT22;2630;52.036;8.514;2023-02-28T04:15:07;-2.90;99.90
5222;DHT22;2630;52.036;8.514;2023-02-28T04:17:33;-2.90;99.90
5222;DHT22;2630;52.036;8.514;2023-02-28T04:19:58;-2.90;99.90
5222;DHT22;2630;52.036;8.514;2023-02-28T04:24:53;-3.00;99.90
5222;DHT22;2630;52.036;8.514;2023-02-28T04:27:20;-3.10;99.90
5222;DHT22;2630;52.036;8.514;2023-02-28T04:29:46;-3.00;99.90
5222;DHT22;2630;52.036;8.514;2023-02-28T04:34:37;-3.00;99.90
5222;DHT22;2630;52.036;8.514;2023-02-28T04:37:04;-3.00;99.90
5222;DHT22;2630;52.036;8.514;2023-02-28T04:41:56;-3.00;99.90
5222;DHT22;2630;52.036;8.514;2023-02-28T04:44:22;-3.00;99.90
5222;DHT22;2630;52.036;8.514;2023-02-28T04:46:48;-3.00;99.90
5222;DHT22;2630;52.036;8.514;2023-02-28T04:49:14;-3.00;99.90
5222;DHT22;2630;52.036;8.514;2023-02-28T04:51:40;-3.00;99.90
5222;DHT22;2630;52.036;8.514;2023-02-28T04:54:06;-3.00;99.90
5222;DHT22;2630;52.036;8.514;2023-02-28T04:56:32;-3.10;99.90
5222;DHT22;2630;52.036;8.514;2023-02-28T04:58:58;-3.10;99.90
5222;DHT22;2630;52.036;8.514;2023-02-28T05:01:28;-3.10;99.90
5222;DHT22;2630;52.036;8.514;2023-02-28T05:03:56;-3.20;99.90
5222;DHT22;2630;52.036;8.514;2023-02-28T05:06:24;-3.20;99.90
5222;DHT22;2630;52.036;8.514;2023-02-28T05:13:44;-3.20;99.90
5222;DHT22;2630;52.036;8.514;2023-02-28T05:16:10;-3.20;99.90
5222;DHT22;2630;52.036;8.514;2023-02-28T05:18:36;-3.20;99.90
5222;DHT22;2630;52.036;8.514;2023-02-28T05:25:55;-3.20;99.90
5222;DHT22;2630;52.036;8.514;2023-02-28T05:30:47;-3.30;99.90
5222;DHT22;2630;52.036;8.514;2023-02-28T05:35:40;-3.30;99.90
5222;DHT22;2630;52.036;8.514;2023-02-28T05:38:06;-3.30;99.90
5222;DHT22;2630;52.036;8.514;2023-02-28T05:40:31;-3.40;99.90
5222;DHT22;2630;52.036;8.514;2023-02-28T05:42:57;-3.40;99.90
5222;DHT22;2630;52.036;8.514;2023-02-28T05:45:22;-3.40;99.90
5222;DHT22;2630;52.036;8.514;2023-02-28T05:47:48;-3.40;99.90
5222;DHT22;2630;52.036;8.514;2023-02-28T05:52:40;-3.50;99.90
5222;DHT22;2630;52.036;8.514;2023-02-28T05:55:06;-3.50;99.90
5222;DHT22;2630;52.036;8.514;2023-02-28T05:57:31;-3.50;99.90
5222;DHT22;2630;52.036;8.514;2023-02-28T05:59:57;-3.50;99.90
5222;DHT22;2630;52.036;8.514;2023-02-28T06:02:23;-3.50;99.90
5222;DHT22;2630;52.036;8.514;2023-02-28T06:07:14;-3.50;99.90
5222;DHT22;2630;52.036;8.514;2023-02-28T06:09:40;-3.40;99.90
5222;DHT22;2630;52.036;8.514;2023-02-28T06:12:06;-3.40;99.90
5222;DHT22;2630;52.036;8.514;2023-02-28T06:14:33;-3.40;99.90
5222;DHT22;2630;52.036;8.514;2023-02-28T06:17:00;-3.50;99.90
5222;DHT22;2630;52.036;8.514;2023-02-28T06:19:26;-3.50;99.90
5222;DHT22;2630;52.036;8.514;2023-02-28T06:21:52;-3.40;99.90
5222;DHT22;2630;52.036;8.514;2023-02-28T06:24:23;-3.40;99.90
5222;DHT22;2630;52.036;8.514;2023-02-28T06:26:49;-3.40;99.90
5222;DHT22;2630;52.036;8.514;2023-02-28T06:29:15;-3.40;99.90
5222;DHT22;2630;52.036;8.514;2023-02-28T06:34:09;-3.40;99.90
5222;DHT22;2630;52.036;8.514;2023-02-28T06:36:40;-3.30;99.90
5222;DHT22;2630;52.036;8.514;2023-02-28T06:41:32;-3.10;99.90
5222;DHT22;2630;52.036;8.514;2023-02-28T06:44:04;-3.00;99.90
5222;DHT22;2630;52.036;8.514;2023-02-28T06:46:31;-2.80;99.90
5222;DHT22;2630;52.036;8.514;2023-02-28T06:52:18;-2.40;99.90
5222;DHT22;2630;52.036;8.514;2023-02-28T06:57:10;-2.10;99.90
5222;DHT22;2630;52.036;8.514;2023-02-28T06:59:35;-1.90;99.90
5222;DHT22;2630;52.036;8.514;2023-02-28T07:07:39;-1.40;99.90
5222;DHT22;2630;52.036;8.514;2023-02-28T07:10:12;-1.30;99.90
5222;DHT22;2630;52.036;8.514;2023-02-28T07:12:38;-1.30;99.90
5222;DHT22;2630;52.036;8.514;2023-02-28T07:15:40;-1.30;99.90
5222;DHT22;2630;52.036;8.514;2023-02-28T07:18:06;-1.10;99.90
5222;DHT22;2630;52.036;8.514;2023-02-28T07:20:31;-0.90;99.90
5222;DHT22;2630;52.036;8.514;2023-02-28T07:22:57;-0.70;99.90
5222;DHT22;2630;52.036;8.514;2023-02-28T07:25:23;-0.30;99.90
5222;DHT22;2630;52.036;8.514;2023-02-28T07:27:49;0.10;99.90
5222;DHT22;2630;52.036;8.514;2023-02-28T07:30:15;0.60;99.90
5222;DHT22;2630;52.036;8.514;2023-02-28T07:32:42;1.10;99.90
5222;DHT22;2630;52.036;8.514;2023-02-28T07:35:08;1.80;99.90
5222;DHT22;2630;52.036;8.514;2023-02-28T07:40:04;2.70;99.90
5222;DHT22;2630;52.036;8.514;2023-02-28T07:42:32;3.10;99.90
5222;DHT22;2630;52.036;8.514;2023-02-28T07:44:58;3.30;99.90
5222;DHT22;2630;52.036;8.514;2023-02-28T07:47:24;3.90;99.90
5222;DHT22;2630;52.036;8.514;2023-02-28T07:49:50;4.50;99.90
5222;DHT22;2630;52.036;8.514;2023-02-28T07:52:15;5.30;99.90
5222;DHT22;2630;52.036;8.514;2023-02-28T07:54:41;6.80;99.90
5222;DHT22;2630;52.036;8.514;2023-02-28T07:57:06;7.90;99.90
5222;DHT22;2630;52.036;8.514;2023-02-28T07:59:32;8.50;99.90
5222;DHT22;2630;52.036;8.514;2023-02-28T08:01:58;9.00;99.90
5222;DHT22;2630;52.036;8.514;2023-02-28T08:04:24;9.50;99.90
5222;DHT22;2630;52.036;8.514;2023-02-28T08:06:50;9.60;99.90
5222;DHT22;2630;52.036;8.514;2023-02-28T08:09:19;11.50;99.90
5222;DHT22;2630;52.036;8.514;2023-02-28T08:14:10;13.50;99.30
5222;DHT22;2630;52.036;8.514;2023-02-28T08:16:36;13.90;96.70
5222;DHT22;2630;52.036;8.514;2023-02-28T08:19:02;15.10;97.50
5222;DHT22;2630;52.036;8.514;2023-02-28T08:23:54;15.00;91.60
5222;DHT22;2630;52.036;8.514;2023-02-28T08:28:46;15.50;88.70
5222;DHT22;2630;52.036;8.514;2023-02-28T08:31:14;15.80;85.20
5222;DHT22;2630;52.036;8.514;2023-02-28T08:33:41;16.10;82.30
5222;DHT22;2630;52.036;8.514;2023-02-28T08:36:07;16.00;76.60
5222;DHT22;2630;52.036;8.514;2023-02-28T08:38:35;15.60;77.40
5222;DHT22;2630;52.036;8.514;2023-02-28T08:41:05;15.20;76.90
5222;DHT22;2630;52.036;8.514;2023-02-28T08:43:35;14.60;73.40
5222;DHT22;2630;52.036;8.514;2023-02-28T08:46:02;14.10;74.30
5222;DHT22;2630;52.036;8.514;2023-02-28T08:48:46;13.90;76.50
5222;DHT22;2630;52.036;8.514;2023-02-28T08:51:14;13.60;74.90
5222;DHT22;2630;52.036;8.514;2023-02-28T08:53:44;13.10;75.90
5222;DHT22;2630;52.036;8.514;2023-02-28T08:56:12;12.90;77.10
5222;DHT22;2630;52.036;8.514;2023-02-28T08:58:38;12.50;74.60
5222;DHT22;2630;52.036;8.514;2023-02-28T09:01:13;12.20;77.30
5222;DHT22;2630;52.036;8.514;2023-02-28T09:03:40;12.00;76.80
5222;DHT22;2630;52.036;8.514;2023-02-28T09:06:10;11.80;77.30
5222;DHT22;2630;52.036;8.514;2023-02-28T09:08:36;11.00;75.40
5222;DHT22;2630;52.036;8.514;2023-02-28T09:11:02;10.70;77.10
5222;DHT22;2630;52.036;8.514;2023-02-28T09:13:29;10.40;78.20
5222;DHT22;2630;52.036;8.514;2023-02-28T09:16:01;10.20;81.00
5222;DHT22;2630;52.036;8.514;2023-02-28T09:18:27;10.00;81.70
5222;DHT22;2630;52.036;8.514;2023-02-28T09:20:53;9.80;80.80
5222;DHT22;2630;52.036;8.514;2023-02-28T09:23:19;9.40;77.80
5222;DHT22;2630;52.036;8.514;2023-02-28T09:25:50;9.10;77.90
5222;DHT22;2630;52.036;8.514;2023-02-28T09:30:44;8.00;78.20
5222;DHT22;2630;52.036;8.514;2023-02-28T09:33:11;7.30;81.00
5222;DHT22;2630;52.036;8.514;2023-02-28T09:35:37;7.20;84.30
5222;DHT22;2630;52.036;8.514;2023-02-28T09:38:03;6.90;83.20
5222;DHT22;2630;52.036;8.514;2023-02-28T09:40:29;7.10;87.10
5222;DHT22;2630;52.036;8.514;2023-02-28T09:42:57;7.10;86.80
5222;DHT22;2630;52.036;8.514;2023-02-28T09:45:37;6.90;84.60
5222;DHT22;2630;52.036;8.514;2023-02-28T09:48:25;6.60;86.10
5222;DHT22;2630;52.036;8.514;2023-02-28T09:51:00;5.90;85.70
5222;DHT22;2630;52.036;8.514;2023-02-28T09:53:35;5.80;88.30
5222;DHT22;2630;52.036;8.514;2023-02-28T09:56:19;5.90;90.00
5222;DHT22;2630;52.036;8.514;2023-02-28T09:58:58;5.70;88.70
5222;DHT22;2630;52.036;8.514;2023-02-28T10:01:35;5.40;90.60
5222;DHT22;2630;52.036;8.514;2023-02-28T10:04:32;5.40;91.60
5222;DHT22;2630;52.036;8.514;2023-02-28T10:07:03;5.50;92.10
5222;DHT22;2630;52.036;8.514;2023-02-28T10:09:32;5.70;92.40
5222;DHT22;2630;52.036;8.514;2023-02-28T10:12:06;5.80;91.70
5222;DHT22;2630;52.036;8.514;2023-02-28T10:14:35;6.00;90.40
5222;DHT22;2630;52.036;8.514;2023-02-28T10:17:11;6.20;90.80
5222;DHT22;2630;52.036;8.514;2023-02-28T10:22:31;7.20;87.90
5222;DHT22;2630;52.036;8.514;2023-02-28T10:24:59;7.00;84.00
5222;DHT22;2630;52.036;8.514;2023-02-28T10:30:00;7.10;85.90
5222;DHT22;2630;52.036;8.514;2023-02-28T10:32:34;8.10;84.80
5222;DHT22;2630;52.036;8.514;2023-02-28T10:40:03;9.60;81.50
5222;DHT22;2630;52.036;8.514;2023-02-28T10:42:32;8.60;79.20
5222;DHT22;2630;52.036;8.514;2023-02-28T10:45:17;9.00;82.60
5222;DHT22;2630;52.036;8.514;2023-02-28T10:50:33;10.20;76.90
5222;DHT22;2630;52.036;8.514;2023-02-28T10:56:14;10.70;70.70
5222;DHT22;2630;52.036;8.514;2023-02-28T11:03:45;8.20;75.00
5222;DHT22;2630;52.036;8.514;2023-02-28T11:06:17;7.40;75.20
5222;DHT22;2630;52.036;8.514;2023-02-28T11:08:49;6.70;77.30
5222;DHT22;2630;52.036;8.514;2023-02-28T11:11:17;6.20;80.60
5222;DHT22;2630;52.036;8.514;2023-02-28T11:16:12;5.40;82.70
5222;DHT22;2630;52.036;8.514;2023-02-28T11:18:55;5.20;83.40
5222;DHT22;2630;52.036;8.514;2023-02-28T11:21:27;5.50;84.80
5222;DHT22;2630;52.036;8.514;2023-02-28T11:24:01;6.10;86.10
5222;DHT22;2630;52.036;8.514;2023-02-28T11:26:42;6.80;81.60
5222;DHT22;2630;52.036;8.514;2023-02-28T11:29:12;7.30;79.50
5222;DHT22;2630;52.036;8.514;2023-02-28T11:31:41;7.60;78.40
5222;DHT22;2630;52.036;8.514;2023-02-28T11:36:51;8.00;75.80
5222;DHT22;2630;52.036;8.514;2023-02-28T11:39:17;7.80;74.00
5222;DHT22;2630;52.036;8.514;2023-02-28T11:44:56;8.10;75.50
5222;DHT22;2630;52.036;8.514;2023-02-28T11:47:34;8.10;76.30
5222;DHT22;2630;52.036;8.514;2023-02-28T11:52:58;8.90;75.70
5222;DHT22;2630;52.036;8.514;2023-02-28T12:00:53;8.50;74.90
5222;DHT22;2630;52.036;8.514;2023-02-28T12:06:23;7.60;76.90
5222;DHT22;2630;52.036;8.514;2023-02-28T12:28:09;7.10;80.80
5222;DHT22;2630;52.036;8.514;2023-02-28T12:30:41;7.20;80.80
5222;DHT22;2630;52.036;8.514;2023-02-28T12:33:14;7.20;80.70
5222;DHT22;2630;52.036;8.514;2023-02-28T12:35:57;7.10;81.50
5222;DHT22;2630;52.036;8.514;2023-02-28T12:38:36;7.10;82.30
5222;DHT22;2630;52.036;8.514;2023-02-28T12:41:16;7.00;82.10
5222;DHT22;2630;52.036;8.514;2023-02-28T12:43:53;7.10;80.90
5222;DHT22;2630;52.036;8.514;2023-02-28T12:46:25;7.30;80.20
5222;DHT22;2630;52.036;8.514;2023-02-28T12:48:56;7.70;80.30
5222;DHT22;2630;52.036;8.514;2023-02-28T12:51:24;8.20;80.00
5222;DHT22;2630;52.036;8.514;2023-02-28T13:10:20;7.50;79.60
5222;DHT22;2630;52.036;8.514;2023-02-28T13:12:50;7.30;80.70
5222;DHT22;2630;52.036;8.514;2023-02-28T13:17:59;7.30;80.80
5222;DHT22;2630;52.036;8.514;2023-02-28T13:20:34;7.00;80.90
5222;DHT22;2630;52.036;8.514;2023-02-28T13:23:00;7.00;83.10
5222;DHT22;2630;52.036;8.514;2023-02-28T13:28:00;7.00;82.10
5222;DHT22;2630;52.036;8.514;2023-02-28T13:33:31;6.60;80.70
5222;DHT22;2630;52.036;8.514;2023-02-28T13:38:55;6.50;82.10
5222;DHT22;2630;52.036;8.514;2023-02-28T13:54:54;6.10;83.60
5222;DHT22;2630;52.036;8.514;2023-02-28T13:57:44;6.00;84.60
5222;DHT22;2630;52.036;8.514;2023-02-28T14:03:29;5.80;86.20
5222;DHT22;2630;52.036;8.514;2023-02-28T14:06:28;5.90;86.80
5222;DHT22;2630;52.036;8.514;2023-02-28T14:08:59;5.80;86.90
5222;DHT22;2630;52.036;8.514;2023-02-28T14:11:37;5.70;87.00
5222;DHT22;2630;52.036;8.514;2023-02-28T14:14:06;5.70;87.90
5222;DHT22;2630;52.036;8.514;2023-02-28T14:16:44;5.90;88.30
5222;DHT22;2630;52.036;8.514;2023-02-28T14:24:28;5.80;87.90
5222;DHT22;2630;52.036;8.514;2023-02-28T14:27:03;5.80;88.30
5222;DHT22;2630;52.036;8.514;2023-02-28T14:35:34;6.20;90.20
5222;DHT22;2630;52.036;8.514;2023-02-28T14:38:05;6.70;89.10
5222;DHT22;2630;52.036;8.514;2023-02-28T14:40:33;7.20;88.60
5222;DHT22;2630;52.036;8.514;2023-02-28T14:43:03;7.70;85.70
5222;DHT22;2630;52.036;8.514;2023-02-28T14:45:31;7.70;85.00
5222;DHT22;2630;52.036;8.514;2023-02-28T14:47:58;7.70;84.30
5222;DHT22;2630;52.036;8.514;2023-02-28T14:50:29;7.60;84.70
5222;DHT22;2630;52.036;8.514;2023-02-28T14:52:55;7.70;84.80
5222;DHT22;2630;52.036;8.514;2023-02-28T14:55:34;7.90;85.40
5222;DHT22;2630;52.036;8.514;2023-02-28T14:58:03;8.20;86.60
5222;DHT22;2630;52.036;8.514;2023-02-28T15:00:33;8.30;83.60
5222;DHT22;2630;52.036;8.514;2023-02-28T15:03:11;8.20;84.10
5222;DHT22;2630;52.036;8.514;2023-02-28T15:05:42;8.00;85.40
5222;DHT22;2630;52.036;8.514;2023-02-28T15:08:15;7.70;85.90
5222;DHT22;2630;52.036;8.514;2023-02-28T15:10:50;7.60;86.00
5222;DHT22;2630;52.036;8.514;2023-02-28T15:13:17;7.30;87.30
5222;DHT22;2630;52.036;8.514;2023-02-28T15:16:02;7.00;87.10
5222;DHT22;2630;52.036;8.514;2023-02-28T15:18:33;6.60;88.00
5222;DHT22;2630;52.036;8.514;2023-02-28T15:25:56;5.70;90.90
5222;DHT22;2630;52.036;8.514;2023-02-28T15:28:23;5.60;91.70
5222;DHT22;2630;52.036;8.514;2023-02-28T15:31:00;5.60;92.40
5222;DHT22;2630;52.036;8.514;2023-02-28T15:33:29;5.50;92.90
5222;DHT22;2630;52.036;8.514;2023-02-28T15:36:25;5.40;93.70
5222;DHT22;2630;52.036;8.514;2023-02-28T15:38:53;5.30;93.80
5222;DHT22;2630;52.036;8.514;2023-02-28T15:41:37;5.20;93.80
5222;DHT22;2630;52.036;8.514;2023-02-28T15:46:53;5.10;94.60
5222;DHT22;2630;52.036;8.514;2023-02-28T15:49:21;5.10;95.00
5222;DHT22;2630;52.036;8.514;2023-02-28T15:51:49;5.00;95.90
5222;DHT22;2630;52.036;8.514;2023-02-28T15:54:25;4.90;96.30
5222;DHT22;2630;52.036;8.514;2023-02-28T15:56:54;4.80;96.20
5222;DHT22;2630;52.036;8.514;2023-02-28T16:04:36;4.60;96.60
5222;DHT22;2630;52.036;8.514;2023-02-28T16:07:04;4.60;96.60
5222;DHT22;2630;52.036;8.514;2023-02-28T16:09:30;4.50;96.70
5222;DHT22;2630;52.036;8.514;2023-02-28T16:12:00;4.50;96.90
5222;DHT22;2630;52.036;8.514;2023-02-28T16:14:30;4.50;97.30
5222;DHT22;2630;52.036;8.514;2023-02-28T16:17:04;4.50;97.10
5222;DHT22;2630;52.036;8.514;2023-02-28T16:19:30;4.40;97.10
5222;DHT22;2630;52.036;8.514;2023-02-28T16:21:56;4.40;97.40
5222;DHT22;2630;52.036;8.514;2023-02-28T16:24:22;4.30;97.70
5222;DHT22;2630;52.036;8.514;2023-02-28T16:26:48;4.30;98.20
5222;DHT22;2630;52.036;8.514;2023-02-28T16:29:32;4.20;98.70
5222;DHT22;2630;52.036;8.514;2023-02-28T16:36:52;4.10;99.90
5222;DHT22;2630;52.036;8.514;2023-02-28T16:39:18;4.10;99.90
5222;DHT22;2630;52.036;8.514;2023-02-28T16:41:48;4.00;99.90
5222;DHT22;2630;52.036;8.514;2023-02-28T16:46:46;3.90;99.90
5222;DHT22;2630;52.036;8.514;2023-02-28T16:49:12;3.90;99.90
5222;DHT22;2630;52.036;8.514;2023-02-28T16:51:38;3.80;99.90
5222;DHT22;2630;52.036;8.514;2023-02-28T16:54:04;3.80;99.90
5222;DHT22;2630;52.036;8.514;2023-02-28T16:56:30;3.80;99.90
5222;DHT22;2630;52.036;8.514;2023-02-28T16:59:00;3.70;99.90
5222;DHT22;2630;52.036;8.514;2023-02-28T17:03:52;3.60;99.90
5222;DHT22;2630;52.036;8.514;2023-02-28T17:06:26;3.50;99.90
5222;DHT22;2630;52.036;8.514;2023-02-28T17:08:57;3.50;99.90
5222;DHT22;2630;52.036;8.514;2023-02-28T17:11:24;3.50;99.90
5222;DHT22;2630;52.036;8.514;2023-02-28T17:13:49;3.40;99.90
5222;DHT22;2630;52.036;8.514;2023-02-28T17:16:26;3.30;99.90
5222;DHT22;2630;52.036;8.514;2023-02-28T17:18:54;3.20;99.90
5222;DHT22;2630;52.036;8.514;2023-02-28T17:21:22;3.20;99.90
5222;DHT22;2630;52.036;8.514;2023-02-28T17:23:47;3.10;99.90
5222;DHT22;2630;52.036;8.514;2023-02-28T17:26:15;3.10;99.90
5222;DHT22;2630;52.036;8.514;2023-02-28T17:28:42;3.10;99.90
5222;DHT22;2630;52.036;8.514;2023-02-28T17:31:08;3.10;99.90
5222;DHT22;2630;52.036;8.514;2023-02-28T17:35:59;2.90;99.90
5222;DHT22;2630;52.036;8.514;2023-02-28T17:38:25;2.90;99.90
5222;DHT22;2630;52.036;8.514;2023-02-28T17:40:51;2.80;99.90
5222;DHT22;2630;52.036;8.514;2023-02-28T17:43:25;2.80;99.90
5222;DHT22;2630;52.036;8.514;2023-02-28T17:45:52;2.70;99.90
5222;DHT22;2630;52.036;8.514;2023-02-28T17:48:17;2.60;99.90
5222;DHT22;2630;52.036;8.514;2023-02-28T17:50:43;2.60;99.90
5222;DHT22;2630;52.036;8.514;2023-02-28T17:53:09;2.50;99.90
5222;DHT22;2630;52.036;8.514;2023-02-28T17:55:35;2.40;99.90
5222;DHT22;2630;52.036;8.514;2023-02-28T17:58:01;2.40;99.90
5222;DHT22;2630;52.036;8.514;2023-02-28T18:00:28;2.30;99.90
5222;DHT22;2630;52.036;8.514;2023-02-28T18:02:53;2.20;99.90
5222;DHT22;2630;52.036;8.514;2023-02-28T18:05:19;2.20;99.90
5222;DHT22;2630;52.036;8.514;2023-02-28T18:07:45;2.10;99.90
5222;DHT22;2630;52.036;8.514;2023-02-28T18:10:18;2.00;99.90
5222;DHT22;2630;52.036;8.514;2023-02-28T18:15:16;1.80;99.90
5222;DHT22;2630;52.036;8.514;2023-02-28T18:20:09;1.70;99.90
5222;DHT22;2630;52.036;8.514;2023-02-28T18:25:06;1.60;99.90
5222;DHT22;2630;52.036;8.514;2023-02-28T18:27:33;1.60;99.90
5222;DHT22;2630;52.036;8.514;2023-02-28T18:29:59;1.50;99.90
5222;DHT22;2630;52.036;8.514;2023-02-28T18:32:25;1.50;99.90
5222;DHT22;2630;52.036;8.514;2023-02-28T18:34:50;1.40;99.90
5222;DHT22;2630;52.036;8.514;2023-02-28T18:37:16;1.30;99.90
5222;DHT22;2630;52.036;8.514;2023-02-28T18:39:43;1.30;99.90
5222;DHT22;2630;52.036;8.514;2023-02-28T18:44:36;1.10;99.90
5222;DHT22;2630;52.036;8.514;2023-02-28T18:49:29;1.00;99.90
5222;DHT22;2630;52.036;8.514;2023-02-28T18:51:55;0.80;99.90
5222;DHT22;2630;52.036;8.514;2023-02-28T18:54:20;0.80;99.90
5222;DHT22;2630;52.036;8.514;2023-02-28T18:56:46;0.70;99.90
5222;DHT22;2630;52.036;8.514;2023-02-28T18:59:11;0.60;99.90
5222;DHT22;2630;52.036;8.514;2023-02-28T19:01:37;0.50;99.90
5222;DHT22;2630;52.036;8.514;2023-02-28T19:04:03;0.50;99.90
5222;DHT22;2630;52.036;8.514;2023-02-28T19:06:30;0.50;99.90
5222;DHT22;2630;52.036;8.514;2023-02-28T19:08:58;0.40;99.90
5222;DHT22;2630;52.036;8.514;2023-02-28T19:11:24;0.30;99.90
5222;DHT22;2630;52.036;8.514;2023-02-28T19:13:50;0.20;99.90
5222;DHT22;2630;52.036;8.514;2023-02-28T19:16:17;0.20;99.90
5222;DHT22;2630;52.036;8.514;2023-02-28T19:21:11;0.10;99.90
5222;DHT22;2630;52.036;8.514;2023-02-28T19:23:37;0.00;99.90
5222;DHT22;2630;52.036;8.514;2023-02-28T19:26:08;0.00;99.90
5222;DHT22;2630;52.036;8.514;2023-02-28T19:28:34;0.10;99.90
5222;DHT22;2630;52.036;8.514;2023-02-28T19:33:26;-0.10;99.90
5222;DHT22;2630;52.036;8.514;2023-02-28T19:35:52;-0.10;99.90
5222;DHT22;2630;52.036;8.514;2023-02-28T19:40:43;-0.10;99.90
5222;DHT22;2630;52.036;8.514;2023-02-28T19:43:09;-0.20;99.90
5222;DHT22;2630;52.036;8.514;2023-02-28T19:45:36;-0.10;99.90
5222;DHT22;2630;52.036;8.514;2023-02-28T19:48:03;-0.20;99.90
5222;DHT22;2630;52.036;8.514;2023-02-28T19:50:29;-0.30;99.90
5222;DHT22;2630;52.036;8.514;2023-02-28T19:52:54;-0.30;99.90
5222;DHT22;2630;52.036;8.514;2023-02-28T19:55:20;-0.30;99.90
5222;DHT22;2630;52.036;8.514;2023-02-28T19:57:46;-0.30;99.90
5222;DHT22;2630;52.036;8.514;2023-02-28T20:00:13;-0.30;99.90
5222;DHT22;2630;52.036;8.514;2023-02-28T20:02:40;-0.30;99.90
5222;DHT22;2630;52.036;8.514;2023-02-28T20:05:09;-0.30;99.90
5222;DHT22;2630;52.036;8.514;2023-02-28T20:07:35;-0.50;99.90
5222;DHT22;2630;52.036;8.514;2023-02-28T20:10:00;-0.50;99.90
5222;DHT22;2630;52.036;8.514;2023-02-28T20:14:53;-0.50;99.90
5222;DHT22;2630;52.036;8.514;2023-02-28T20:17:23;-0.60;99.90
5222;DHT22;2630;52.036;8.514;2023-02-28T20:19:49;-0.60;99.90
5222;DHT22;2630;52.036;8.514;2023-02-28T20:22:14;-0.70;99.90
5222;DHT22;2630;52.036;8.514;2023-02-28T20:24:41;-0.60;99.90
5222;DHT22;2630;52.036;8.514;2023-02-28T20:29:34;-0.70;99.90
5222;DHT22;2630;52.036;8.514;2023-02-28T20:32:00;-0.70;99.90
5222;DHT22;2630;52.036;8.514;2023-02-28T20:34:26;-0.70;99.90
5222;DHT22;2630;52.036;8.514;2023-02-28T20:36:51;-0.80;99.90
5222;DHT22;2630;52.036;8.514;2023-02-28T20:39:17;-0.80;99.90
5222;DHT22;2630;52.036;8.514;2023-02-28T20:41:42;-0.80;99.90
5222;DHT22;2630;52.036;8.514;2023-02-28T20:46:37;-0.80;99.90
5222;DHT22;2630;52.036;8.514;2023-02-28T20:51:28;-0.80;99.90
5222;DHT22;2630;52.036;8.514;2023-02-28T20:53:54;-0.90;99.90
5222;DHT22;2630;52.036;8.514;2023-02-28T20:56:21;-0.90;99.90